KTMB/TMB METAR and TAF weather

Enter ICAO airport designator
Station Type Date Time Source
KTMB METAR 2024/04/23 04:53 UTC NOAA

KTMB 230453Z AUTO 02008KT 10SM FEW041 21/17 A3006 RMK AO2 SLP177 T02110167 403060200 $


Station Type Date Time Source
KTMB Decoded METAR 2024/04/23 04:53 UTC NOAA

KENDALL-TAMIAMI EXEC AIRPORT , FL, United States (KTMB) 25-39N 080-26W 2M
Apr 23, 2024 - 12:53 AM EDT / 2024.04.23 0453 UTC
Wind: from the NNE (020 degrees) at 9 MPH (8 KT):0
Visibility: 10 mile(s):0
Sky conditions: mostly clear
Temperature: 70.0 F (21.1 C)
Dew Point: 62.1 F (16.7 C)
Relative Humidity: 75%
Pressure (altimeter): 30.06 in. Hg (1017 hPa)
ob: KTMB 230453Z AUTO 02008KT 10SM FEW041 21/17 A3006 RMK AO2 SLP177 T02110167 403060200
cycle: 5

Station Type Date Time Source
KTMB TAF 2024/04/23 03:46 UTC NOAA